KLOM

Wings Field

Airport
ICAO code
KLOM
Summary
ICAO Region
NAM
ICAO Territory
Location

Blue Bell, Pennsylvania,

Coordinates
40° 8' 15" N , 75° 15' 54" W
KCC
Airport BS
Bird Strike
Airport WX
Tropical Revolving Storm
Metar
Observation
KLOM 081935Z AUTO 34009KT 10SM BKN035 OVC044 09/01 A3024 RMK AO2 T00900012
Station
Philadelphia, Wings Field Airport
Date/Time
2022-12-08 19:35:00
Wind direction
340°
Wind speed
09 kts
Lowest cloud amount
broken clouds
Temperature
9°C
Dew point
1.2°C
Humidity
58%
Weather condition
n/a

Description

General Aviation airport 5 km northwest of Philadelphia.

Climatology

Humid “subtropical” climate (Köppen climate classification Cfa) - characterized by hot, humid summers and cool winters. Significant amounts of precipitation occur in all seasons in most areas. Winter rainfall (and sometimes snowfall) is associated with large storms that the westerlies steer from west to east. Most summer rainfall occurs during thunderstorms and occasional tropical storms (hurricanes).

Runways

Designator Length Width Surface Rops
6/24 1128 23 ASP Yes/Yes

Airport map

Aerial View

SKYbrary Partners:

Safety knowledge contributed by: